Time;durP1;ratioP1;P1;durP2;ratioP2;P2;SDS_P1;SDS_P2;PMS_P1;PMS_P2;Temp;Humidity;BMP_temperature;BMP_pressure;BME280_temperature;BME280_humidity;BME280_pressure;Samples;Min_cycle;Max_cycle;Signal;HPM_P1;HPM_P2
2022/05/12 03:29:06;;;;;;;5.63;3.57;;;16.50;99.90;;;;;;5816125;24;20195;31
2022/05/12 03:31:36;;;;;;;6.83;3.93;;;16.50;99.90;;;;;;4823399;29;20247;-79
2022/05/12 03:34:05;;;;;;;6.60;4.07;;;16.50;99.90;;;;;;4843060;29;20769;-76
2022/05/12 03:36:35;;;;;;;4.87;3.73;;;16.40;99.90;;;;;;4844418;29;20291;-78
2022/05/12 03:39:04;;;;;;;6.23;3.73;;;16.30;99.90;;;;;;4843749;29;20294;-78
2022/05/12 03:41:33;;;;;;;6.53;4.00;;;16.30;99.90;;;;;;4843866;29;20235;-79
2022/05/12 03:46:48;;;;;;;6.50;3.80;;;16.20;99.90;;;;;;4843632;29;20254;-78
2022/05/12 03:49:16;;;;;;;7.67;4.20;;;16.20;99.90;;;;;;4842039;29;20296;-78
2022/05/12 03:51:44;;;;;;;5.53;3.97;;;16.10;99.90;;;;;;4843565;29;20239;-79
2022/05/12 03:54:12;;;;;;;7.73;4.33;;;16.20;99.90;;;;;;4838195;29;20299;-78
2022/05/12 03:56:40;;;;;;;5.20;3.87;;;16.20;99.90;;;;;;4843364;29;20287;-79
2022/05/12 03:59:08;;;;;;;6.47;3.87;;;16.10;99.90;;;;;;4831485;29;20211;-79
2022/05/12 04:01:36;;;;;;;5.50;3.50;;;16.20;99.90;;;;;;4843989;29;20340;-77
2022/05/12 04:04:06;;;;;;;4.33;3.63;;;16.30;99.90;;;;;;4843163;29;20617;-77
2022/05/12 04:06:35;;;;;;;5.63;3.47;;;16.30;99.90;;;;;;4840463;29;20224;-77
2022/05/12 04:09:03;;;;;;;7.63;3.90;;;16.30;99.90;;;;;;4842530;29;20211;-77
2022/05/12 04:11:31;;;;;;;6.17;3.53;;;16.40;99.90;;;;;;4843233;29;20242;-78
2022/05/12 04:13:59;;;;;;;6.50;3.50;;;16.40;99.90;;;;;;4841892;29;20263;-80
2022/05/12 04:16:27;;;;;;;5.77;3.50;;;16.50;99.90;;;;;;4843668;29;20617;-77
2022/05/12 04:18:56;;;;;;;5.70;3.80;;;16.60;99.90;;;;;;4843195;29;20215;-78
2022/05/12 04:21:26;;;;;;;6.93;3.67;;;16.70;99.90;;;;;;4843510;29;20254;-77
2022/05/12 04:23:54;;;;;;;4.80;3.43;;;16.80;99.90;;;;;;4833029;29;20247;-79
2022/05/12 04:26:22;;;;;;;7.33;3.50;;;16.80;99.90;;;;;;4824982;29;20303;-78
2022/05/12 04:28:50;;;;;;;4.10;3.17;;;16.90;99.90;;;;;;4824333;29;20232;-78
2022/05/12 04:31:18;;;;;;;7.77;3.73;;;16.90;99.90;;;;;;4824953;29;20327;-79
2022/05/12 04:36:33;;;;;;;4.53;3.27;;;17.00;99.90;;;;;;4824898;29;20207;-78
2022/05/12 04:39:03;;;;;;;9.70;3.40;;;17.10;99.90;;;;;;4824661;29;20248;-79
2022/05/12 04:41:31;;;;;;;7.03;3.20;;;17.20;99.90;;;;;;4824514;29;20299;-78
2022/05/12 04:43:59;;;;;;;5.03;3.30;;;17.20;99.90;;;;;;4824534;29;20688;-77
2022/05/12 04:46:28;;;;;;;5.03;2.97;;;17.30;99.90;;;;;;4824119;29;20303;-77
2022/05/12 04:48:56;;;;;;;4.27;3.33;;;17.40;99.90;;;;;;4824042;29;20775;-79
2022/05/12 04:51:24;;;;;;;4.60;3.40;;;17.40;99.90;;;;;;4824173;29;20220;-78
2022/05/12 04:53:54;;;;;;;6.73;3.40;;;17.50;99.90;;;;;;4824323;29;20220;-76
2022/05/12 04:56:22;;;;;;;4.70;2.90;;;17.60;99.90;;;;;;4824367;29;20216;-76
2022/05/12 04:58:50;;;;;;;5.30;3.30;;;17.70;99.90;;;;;;4824279;29;20646;-79
2022/05/12 05:01:18;;;;;;;5.00;3.17;;;17.70;99.90;;;;;;4823676;29;20256;-79
2022/05/12 05:03:46;;;;;;;5.40;3.10;;;17.90;99.90;;;;;;4822535;29;20501;-80
2022/05/12 05:06:15;;;;;;;6.03;3.30;;;18.00;99.90;;;;;;4823406;29;20299;-78
2022/05/12 05:08:43;;;;;;;9.60;3.03;;;18.20;99.90;;;;;;4823164;29;20236;-77
2022/05/12 05:11:12;;;;;;;5.50;2.80;;;18.30;99.90;;;;;;4823462;29;20300;-79
2022/05/12 05:13:40;;;;;;;4.67;3.00;;;18.40;99.90;;;;;;4823477;29;20252;-79
2022/05/12 05:16:08;;;;;;;6.87;3.00;;;18.50;99.90;;;;;;4823924;29;20672;-79
2022/05/12 05:18:38;;;;;;;3.80;2.80;;;18.60;99.90;;;;;;4823749;29;20248;-74
2022/05/12 05:21:07;;;;;;;6.33;3.07;;;18.70;99.90;;;;;;4823885;29;20212;-74
2022/05/12 05:23:35;;;;;;;6.57;3.07;;;18.80;99.90;;;;;;4824253;29;20220;-75
2022/05/12 05:26:04;;;;;;;7.03;2.70;;;18.90;99.90;;;;;;4823164;29;20255;-75
2022/05/12 05:28:33;;;;;;;7.20;2.93;;;18.90;99.90;;;;;;4824231;29;20301;-79
2022/05/12 05:31:04;;;;;;;6.43;3.00;;;19.10;99.90;;;;;;4824660;29;20311;-74
2022/05/12 05:33:33;;;;;;;5.53;2.90;;;19.10;99.90;;;;;;4824117;29;20212;-79
2022/05/12 05:36:00;;;;;;;6.63;2.70;;;19.20;99.90;;;;;;4824876;29;20251;-74
2022/05/12 05:38:28;;;;;;;3.37;2.43;;;19.30;99.90;;;;;;4824236;29;20208;-75
2022/05/12 05:40:56;;;;;;;5.73;2.90;;;19.30;99.90;;;;;;4824156;29;20303;-77
2022/05/12 05:43:26;;;;;;;6.33;2.73;;;19.30;99.90;;;;;;4824339;29;20243;-77
2022/05/12 05:45:55;;;;;;;7.70;2.90;;;19.40;99.90;;;;;;4823950;29;20269;-75
2022/05/12 05:48:23;;;;;;;4.93;2.73;;;19.50;99.90;;;;;;4823788;29;20236;-77
2022/05/12 05:53:39;;;;;;;5.77;2.77;;;19.50;99.90;;;;;;4823491;29;20303;-78
2022/05/12 05:56:11;;;;;;;8.03;3.10;;;19.70;99.90;;;;;;4823945;29;20247;-79
2022/05/12 05:58:40;;;;;;;7.00;2.90;;;19.90;99.90;;;;;;4823638;29;20200;-77
2022/05/12 06:01:10;;;;;;;8.00;2.67;;;20.10;99.90;;;;;;4824045;29;20243;-75
2022/05/12 06:03:39;;;;;;;4.37;2.70;;;20.40;99.90;;;;;;4823340;29;20571;-78
2022/05/12 06:06:08;;;;;;;7.77;2.70;;;20.80;99.90;;;;;;4823402;29;20323;-77
2022/05/12 06:08:36;;;;;;;6.40;3.10;;;21.30;99.90;;;;;;4823222;29;20236;-78
2022/05/12 06:11:04;;;;;;;5.63;2.70;;;21.90;97.90;;;;;;4823372;29;20279;-77
2022/05/12 06:13:34;;;;;;;5.50;2.67;;;22.50;96.70;;;;;;4823105;29;20647;-78
2022/05/12 06:16:04;;;;;;;2.90;2.37;;;23.00;95.40;;;;;;4823457;29;20220;-78
2022/05/12 06:18:37;;;;;;;9.80;2.70;;;23.30;94.90;;;;;;4823607;29;20196;-75
2022/05/12 06:21:06;;;;;;;7.17;3.60;;;23.80;92.80;;;;;;4823488;29;20642;-78
2022/05/12 06:23:34;;;;;;;8.73;3.27;;;23.90;92.60;;;;;;4823303;29;20850;-77
2022/05/12 06:26:02;;;;;;;5.87;2.83;;;24.00;92.50;;;;;;4823576;29;20326;-79
2022/05/12 06:28:31;;;;;;;6.33;2.60;;;23.90;91.20;;;;;;4823000;29;20279;-76
2022/05/12 06:30:58;;;;;;;8.70;2.47;;;24.20;91.00;;;;;;4823143;29;20331;-78
2022/05/12 06:33:27;;;;;;;5.67;2.40;;;24.30;90.70;;;;;;4823173;29;20224;-80
2022/05/12 06:35:58;;;;;;;5.27;2.37;;;24.50;90.90;;;;;;4823374;29;20672;-79
2022/05/12 06:38:27;;;;;;;4.47;2.50;;;24.30;91.50;;;;;;4826482;29;20216;-78
2022/05/12 06:40:55;;;;;;;7.60;2.70;;;24.00;91.20;;;;;;4826619;29;20216;-79
2022/05/12 06:43:24;;;;;;;6.70;2.63;;;23.80;92.00;;;;;;4826560;29;20216;-77
2022/05/12 06:45:52;;;;;;;7.30;2.40;;;24.00;92.50;;;;;;4826324;29;20647;-77
2022/05/12 06:48:20;;;;;;;5.90;2.60;;;24.20;90.90;;;;;;4826781;29;20247;-77
2022/05/12 06:50:49;;;;;;;5.27;2.40;;;24.10;90.60;;;;;;4826161;29;20302;-77
2022/05/12 06:53:18;;;;;;;5.40;2.63;;;24.10;89.60;;;;;;4826638;29;20238;-78
2022/05/12 06:55:46;;;;;;;6.43;2.43;;;24.40;90.10;;;;;;4826723;29;20216;-77
2022/05/12 06:58:17;;;;;;;3.53;2.23;;;24.80;88.50;;;;;;4826758;29;20248;-80
2022/05/12 07:00:45;;;;;;;4.30;2.43;;;24.80;89.90;;;;;;4826327;29;20621;-78
2022/05/12 07:03:14;;;;;;;4.93;2.03;;;24.50;90.10;;;;;;4826347;29;20227;-79
2022/05/12 07:05:42;;;;;;;5.47;2.50;;;25.20;88.90;;;;;;4826424;29;20612;-79
2022/05/12 07:08:10;;;;;;;7.07;2.50;;;26.00;87.60;;;;;;4826034;29;20256;-78
2022/05/12 07:10:40;;;;;;;7.17;2.13;;;25.90;84.40;;;;;;4830571;29;20212;-74
2022/05/12 07:13:08;;;;;;;5.97;2.60;;;25.50;85.40;;;;;;4826149;29;20303;-79
2022/05/12 07:15:36;;;;;;;5.60;2.50;;;24.90;85.20;;;;;;4825816;29;20306;-78
2022/05/12 07:18:04;;;;;;;7.20;2.50;;;24.50;89.00;;;;;;4825840;29;20211;-79
2022/05/12 07:28:53;;;;;;;4.28;2.22;;;27.80;81.30;;;;;;4825348;29;20220;-79
2022/05/12 07:31:22;;;;;;;6.30;2.65;;;28.70;75.00;;;;;;4825837;29;20327;-78
2022/05/12 07:33:51;;;;;;;6.93;2.20;;;29.40;73.30;;;;;;4825666;29;20700;-76
2022/05/12 07:36:21;;;;;;;5.38;2.13;;;30.10;71.70;;;;;;4825418;29;20300;-76
2022/05/12 07:38:50;;;;;;;6.88;2.35;;;30.90;69.50;;;;;;4825527;29;20663;-75
2022/05/12 07:41:20;;;;;;;3.13;2.10;;;30.80;68.50;;;;;;4825704;29;20212;-76
2022/05/12 07:43:48;;;;;;;6.65;2.60;;;30.50;66.30;;;;;;4825629;29;20734;-76
2022/05/12 07:46:19;;;;;;;6.35;2.15;;;30.70;65.80;;;;;;4825395;29;20244;-76
2022/05/12 07:48:48;;;;;;;6.38;2.58;;;31.10;65.90;;;;;;4825322;29;20219;-77
2022/05/12 07:51:18;;;;;;;4.13;2.42;;;31.90;63.10;;;;;;4825464;29;20239;-76
2022/05/12 07:53:47;;;;;;;4.68;2.58;;;32.30;61.10;;;;;;4826874;29;20307;-78
2022/05/12 07:56:17;;;;;;;5.50;2.30;;;32.60;60.10;;;;;;4825532;29;20694;-76
2022/05/12 07:58:46;;;;;;;5.97;2.50;;;32.90;59.10;;;;;;4825356;29;20256;-76
2022/05/12 08:01:15;;;;;;;6.50;2.50;;;32.80;58.40;;;;;;4825550;29;20587;-77
2022/05/12 08:03:44;;;;;;;4.32;2.10;;;33.30;57.20;;;;;;4825359;29;20315;-76
2022/05/12 08:06:14;;;;;;;8.90;2.63;;;33.30;56.80;;;;;;4825556;29;20240;-79
2022/05/12 08:08:43;;;;;;;7.50;2.20;;;33.30;57.20;;;;;;4825069;29;20312;-76
2022/05/12 08:11:11;;;;;;;7.20;2.42;;;33.10;55.70;;;;;;4825361;29;20297;-75
2022/05/12 08:13:42;;;;;;;4.28;2.13;;;32.80;55.70;;;;;;4825574;29;20636;-75
2022/05/12 08:16:12;;;;;;;10.00;2.53;;;32.70;55.50;;;;;;4824999;29;20209;-75
2022/05/12 08:18:42;;;;;;;6.80;2.30;;;32.10;57.20;;;;;;4825024;29;20224;-76
2022/05/12 08:21:10;;;;;;;8.38;2.38;;;32.10;56.90;;;;;;4825083;29;20619;-77
2022/05/12 08:23:38;;;;;;;6.15;2.28;;;32.80;56.50;;;;;;4825113;29;20228;-75
2022/05/12 08:26:08;;;;;;;5.18;2.35;;;33.20;56.60;;;;;;4825304;29;20238;-75
2022/05/12 08:28:37;;;;;;;4.63;2.22;;;32.70;56.80;;;;;;4825135;29;20240;-76
2022/05/12 08:31:05;;;;;;;5.05;2.35;;;33.20;57.10;;;;;;4824686;29;20910;-76
2022/05/12 08:33:39;;;;;;;6.05;2.30;;;33.90;55.50;;;;;;4825152;29;20258;-77
2022/05/12 08:36:10;;;;;;;4.60;2.30;;;33.80;55.20;;;;;;4825015;29;20240;-76
2022/05/12 08:38:40;;;;;;;7.07;2.67;;;33.90;54.90;;;;;;4824670;29;20307;-77
2022/05/12 08:41:17;;;;;;;6.35;2.20;;;33.90;53.60;;;;;;4824817;29;20220;-76
2022/05/12 08:43:54;;;;;;;4.97;2.28;;;33.60;55.00;;;;;;4824360;29;20661;-79
2022/05/12 08:46:26;;;;;;;3.83;2.35;;;34.30;56.30;;;;;;4824872;29;20212;-76
2022/05/12 08:49:05;;;;;;;4.47;2.50;;;34.50;53.60;;;;;;4825067;29;20274;-77
2022/05/12 08:51:36;;;;;;;5.05;2.80;;;33.80;55.30;;;;;;4824786;29;20309;-76
2022/05/12 08:54:11;;;;;;;6.85;2.67;;;34.80;53.00;;;;;;4824976;29;20277;-76
2022/05/12 08:56:39;;;;;;;7.50;2.40;;;34.80;52.60;;;;;;4824868;29;20246;-75
2022/05/12 08:59:07;;;;;;;4.03;2.50;;;34.80;52.50;;;;;;4824896;29;20271;-76
2022/05/12 09:01:41;;;;;;;6.07;2.47;;;34.90;52.40;;;;;;4824888;29;20216;-75
2022/05/12 09:04:24;;;;;;;2.80;2.25;;;35.00;52.20;;;;;;4826407;29;20219;-74
2022/05/12 09:06:59;;;;;;;6.93;2.30;;;34.20;54.20;;;;;;4826135;29;20243;-77
2022/05/12 09:09:32;;;;;;;3.45;2.38;;;34.50;52.70;;;;;;4826989;29;20196;-76
2022/05/12 09:12:09;;;;;;;5.30;2.40;;;34.20;51.80;;;;;;4825839;29;20204;-75
2022/05/12 09:14:46;;;;;;;5.35;2.67;;;34.00;53.80;;;;;;4825586;29;20594;-75
2022/05/12 09:17:21;;;;;;;5.47;2.42;;;34.40;54.20;;;;;;4824303;29;20259;-77
2022/05/12 09:19:50;;;;;;;5.65;2.60;;;34.90;52.80;;;;;;4824664;29;20228;-75
2022/05/12 09:22:24;;;;;;;6.40;2.65;;;35.20;52.40;;;;;;4824434;29;20327;-75
2022/05/12 09:24:53;;;;;;;8.25;2.53;;;34.90;51.30;;;;;;4824518;29;20208;-76
2022/05/12 09:27:29;;;;;;;3.83;2.10;;;34.80;52.50;;;;;;4825172;29;20220;-76
2022/05/12 09:29:57;;;;;;;6.75;2.38;;;34.80;51.90;;;;;;4824830;29;20710;-77
2022/05/12 09:32:27;;;;;;;7.70;2.33;;;34.40;52.30;;;;;;4823957;29;20276;-75
2022/05/12 09:35:14;;;;;;;4.50;2.67;;;34.40;52.80;;;;;;4824631;29;20216;-76
2022/05/12 09:37:43;;;;;;;10.80;2.63;;;34.90;52.20;;;;;;4814169;29;20259;-76
2022/05/12 09:40:34;;;;;;;6.55;2.50;;;34.40;54.30;;;;;;4824467;29;20295;-77
2022/05/12 09:43:17;;;;;;;10.15;2.70;;;34.80;51.80;;;;;;4824985;29;20208;-77
2022/05/12 09:46:07;;;;;;;6.93;2.45;;;34.80;53.50;;;;;;4824013;29;20197;-76
2022/05/12 09:48:37;;;;;;;5.03;2.83;;;34.50;53.70;;;;;;4824264;29;20221;-77
2022/05/12 09:51:22;;;;;;;4.93;2.40;;;34.40;52.10;;;;;;4824066;29;20299;-77
2022/05/12 09:53:52;;;;;;;11.85;2.50;;;35.00;52.40;;;;;;4824280;29;20217;-77
2022/05/12 09:56:30;;;;;;;6.43;2.58;;;35.10;51.10;;;;;;4823605;29;20240;-76
2022/05/12 09:59:06;;;;;;;6.07;2.72;;;34.50;51.50;;;;;;4823812;29;20262;-76
2022/05/12 10:01:36;;;;;;;6.32;2.53;;;34.20;53.60;;;;;;4823708;29;20262;-76
2022/05/12 10:10:09;;;;;;;5.97;2.92;;;34.80;52.80;;;;;;4823777;29;20209;-77
2022/05/12 10:12:50;;;;;;;4.40;2.60;;;34.30;54.10;;;;;;4823773;29;20196;-77
2022/05/12 10:15:25;;;;;;;5.43;2.78;;;34.50;52.70;;;;;;4830624;29;20195;-76
2022/05/12 10:17:58;;;;;;;3.78;2.50;;;34.90;53.40;;;;;;4830803;29;20215;-76
2022/05/12 10:20:29;;;;;;;5.70;2.58;;;35.20;51.60;;;;;;4829902;29;20342;-76
2022/05/12 10:23:06;;;;;;;6.60;2.72;;;35.50;52.20;;;;;;4823670;29;20255;-77
2022/05/12 10:25:58;;;;;;;5.10;2.53;;;34.70;53.60;;;;;;4823865;29;20615;-77
2022/05/12 10:28:38;;;;;;;9.15;2.90;;;34.20;54.00;;;;;;4823482;29;20200;-78
2022/05/12 10:31:17;;;;;;;4.88;2.55;;;33.70;54.90;;;;;;4823277;29;20293;-78
2022/05/12 10:33:55;;;;;;;3.50;3.00;;;33.30;56.40;;;;;;4823381;29;20204;-77
2022/05/12 10:36:33;;;;;;;5.15;2.78;;;32.90;57.50;;;;;;4823568;29;20284;-79
2022/05/12 10:39:13;;;;;;;6.97;2.90;;;32.30;55.90;;;;;;4823250;29;20682;-79
2022/05/12 10:41:57;;;;;;;7.70;3.05;;;31.90;57.70;;;;;;4824020;29;20238;-77
2022/05/12 10:44:52;;;;;;;7.55;2.78;;;32.20;57.90;;;;;;4823453;29;20234;-80
2022/05/12 10:47:33;;;;;;;6.38;2.97;;;32.20;56.80;;;;;;4823598;29;20349;-78
2022/05/12 10:50:09;;;;;;;4.35;2.80;;;31.50;58.20;;;;;;4823099;29;20283;-77
2022/05/12 10:52:49;;;;;;;5.40;2.95;;;31.70;58.40;;;;;;4827485;29;20220;-76
2022/05/12 10:55:26;;;;;;;6.13;2.90;;;32.40;57.20;;;;;;4841507;29;20204;-76
2022/05/12 10:58:05;;;;;;;4.93;2.75;;;32.70;56.30;;;;;;4813988;29;20259;-76
2022/05/12 11:00:57;;;;;;;9.82;4.72;;;33.10;56.50;;;;;;4805304;29;20244;-76
2022/05/12 11:03:30;;;;;;;7.15;3.15;;;33.30;56.40;;;;;;4806521;29;20231;-78
2022/05/12 11:06:02;;;;;;;6.47;2.97;;;32.30;56.40;;;;;;4805656;29;20202;-79
2022/05/12 11:08:36;;;;;;;6.03;3.08;;;31.80;56.40;;;;;;4805681;29;20632;-80
2022/05/12 11:11:11;;;;;;;6.50;2.90;;;32.20;57.20;;;;;;4804511;29;20296;-76
2022/05/12 11:13:44;;;;;;;7.07;3.15;;;32.30;58.30;;;;;;4812155;29;20246;-77
2022/05/12 11:16:15;;;;;;;5.35;2.53;;;32.30;58.10;;;;;;4823998;29;20292;-79
2022/05/12 11:18:49;;;;;;;7.40;2.88;;;32.60;60.20;;;;;;4823788;29;20656;-78
2022/05/12 11:21:20;;;;;;;6.85;2.72;;;32.50;57.80;;;;;;4824126;29;20262;-79
2022/05/12 11:24:10;;;;;;;7.88;3.00;;;32.20;58.50;;;;;;4825330;29;20213;-80
2022/05/12 11:26:51;;;;;;;7.63;3.00;;;31.60;59.10;;;;;;4827497;29;20269;-75
2022/05/12 11:29:44;;;;;;;7.15;2.90;;;31.50;59.60;;;;;;4830924;29;20264;-77
2022/05/12 11:32:37;;;;;;;6.35;2.63;;;31.20;58.70;;;;;;4833538;29;20309;-78
2022/05/12 11:35:09;;;;;;;10.00;3.03;;;30.50;60.30;;;;;;4832226;29;20315;-79
2022/05/12 11:37:55;;;;;;;6.80;2.90;;;29.60;63.80;;;;;;4831901;29;20205;-76
2022/05/12 11:40:52;;;;;;;6.97;3.10;;;29.40;65.70;;;;;;4830784;29;20239;-77
2022/05/12 11:46:44;;;;;;;6.63;3.40;;;28.80;65.50;;;;;;4827459;29;20324;-78
2022/05/12 11:49:32;;;;;;;8.23;2.93;;;28.60;64.70;;;;;;4826365;29;20208;-78
2022/05/12 11:52:16;;;;;;;5.37;3.50;;;28.70;67.90;;;;;;4826116;29;20224;-78
2022/05/12 11:54:51;;;;;;;8.33;3.43;;;29.30;66.50;;;;;;4825897;29;20275;-76
2022/05/12 11:57:28;;;;;;;5.80;3.43;;;29.50;67.20;;;;;;4826051;29;20268;-77
2022/05/12 11:59:59;;;;;;;7.60;3.17;;;29.40;67.30;;;;;;4825670;29;20205;-77
2022/05/12 12:02:45;;;;;;;7.17;3.10;;;29.50;62.70;;;;;;4825947;29;20221;-79
2022/05/12 12:05:36;;;;;;;12.07;3.13;;;29.50;64.80;;;;;;4825757;29;20204;-77
2022/05/12 12:08:08;;;;;;;8.17;3.53;;;29.50;66.00;;;;;;4825435;29;20649;-78
2022/05/12 12:10:39;;;;;;;6.40;3.20;;;29.90;66.80;;;;;;4825762;29;20626;-75
2022/05/12 12:13:35;;;;;;;5.30;2.90;;;29.50;65.10;;;;;;4826765;29;20287;-77
2022/05/12 12:16:10;;;;;;;6.53;3.10;;;29.80;63.90;;;;;;4827994;29;20678;-77
2022/05/12 12:19:01;;;;;;;6.37;3.20;;;29.60;61.20;;;;;;4828487;29;20295;-78
2022/05/12 12:21:53;;;;;;;9.20;3.63;;;29.80;63.50;;;;;;4828414;29;20220;-79
2022/05/12 12:24:54;;;;;;;7.67;3.10;;;29.90;64.30;;;;;;4828913;29;20330;-76
2022/05/12 12:28:01;;;;;;;5.20;3.10;;;29.90;60.60;;;;;;4828562;29;20294;-77
2022/05/12 12:30:54;;;;;;;6.93;3.20;;;29.90;63.50;;;;;;4824979;29;20766;-80
2022/05/12 12:33:52;;;;;;;5.53;3.23;;;29.60;62.40;;;;;;4824772;29;20219;-79
2022/05/12 12:36:59;;;;;;;5.10;3.40;;;29.00;64.90;;;;;;4822072;29;20320;-78
2022/05/12 12:39:49;;;;;;;4.70;3.13;;;29.20;65.40;;;;;;4825016;29;20232;-76
2022/05/12 12:42:33;;;;;;;7.30;3.20;;;29.40;65.50;;;;;;4824952;29;20319;-75
2022/05/12 12:45:10;;;;;;;7.00;3.57;;;28.80;63.80;;;;;;4824705;29;20287;-79
2022/05/12 12:47:47;;;;;;;6.10;3.40;;;28.80;68.20;;;;;;4824689;29;20228;-79
2022/05/12 12:50:29;;;;;;;7.43;3.17;;;29.10;68.10;;;;;;4824349;29;20543;-79
2022/05/12 12:52:58;;;;;;;6.33;3.23;;;28.60;67.70;;;;;;4825110;29;20212;-76
2022/05/12 12:58:17;;;;;;;6.27;3.40;;;28.00;66.40;;;;;;4824928;29;20331;-79
2022/05/12 13:00:45;;;;;;;8.67;3.70;;;27.80;67.50;;;;;;4823419;29;20262;-77
2022/05/12 13:03:22;;;;;;;7.43;3.50;;;28.00;68.80;;;;;;4824349;29;20707;-79
2022/05/12 13:05:50;;;;;;;8.53;3.60;;;27.90;70.60;;;;;;4824262;29;20200;-78
2022/05/12 13:08:24;;;;;;;8.77;3.40;;;27.90;68.40;;;;;;4826186;29;20232;-78
2022/05/12 13:10:58;;;;;;;7.50;3.30;;;28.20;69.30;;;;;;4826419;29;20299;-76
2022/05/12 13:13:28;;;;;;;7.53;3.17;;;28.30;66.20;;;;;;4826068;29;20219;-77
2022/05/12 13:15:59;;;;;;;7.03;3.30;;;28.70;65.90;;;;;;4824476;29;20219;-76
2022/05/12 13:18:31;;;;;;;6.20;3.10;;;28.80;66.80;;;;;;4824358;29;20208;-80
2022/05/12 13:21:01;;;;;;;7.07;3.20;;;28.50;64.90;;;;;;4824295;29;20211;-77
2022/05/12 13:23:32;;;;;;;4.80;3.00;;;28.10;68.80;;;;;;4824095;29;20204;-78
2022/05/12 13:26:06;;;;;;;6.20;3.10;;;28.00;67.00;;;;;;4824061;29;20212;-77
2022/05/12 13:28:37;;;;;;;8.70;3.20;;;27.80;67.50;;;;;;4823096;29;20296;-76
2022/05/12 13:31:15;;;;;;;7.57;3.17;;;27.50;69.60;;;;;;4823292;29;20608;-76
2022/05/12 13:34:05;;;;;;;7.50;3.30;;;27.20;71.10;;;;;;4823773;29;20224;-75
2022/05/12 13:36:44;;;;;;;8.33;3.57;;;27.00;71.00;;;;;;4824368;29;20248;-78
2022/05/12 13:39:14;;;;;;;5.70;3.37;;;27.40;72.60;;;;;;4823940;29;20193;-79
2022/05/12 13:41:47;;;;;;;4.77;3.20;;;27.60;69.90;;;;;;4824256;29;20252;-78
2022/05/12 13:44:20;;;;;;;7.03;3.37;;;27.70;69.90;;;;;;4823484;29;20219;-80
2022/05/12 13:46:51;;;;;;;5.77;3.00;;;28.10;68.10;;;;;;4823754;29;20216;-79
2022/05/12 13:49:32;;;;;;;3.97;2.70;;;28.30;67.10;;;;;;4823437;29;20236;-77
2022/05/12 13:52:17;;;;;;;5.73;3.03;;;28.30;65.00;;;;;;4824190;29;20200;-78
2022/05/12 13:55:05;;;;;;;6.00;3.10;;;28.30;65.20;;;;;;4825576;29;20227;-79
2022/05/12 13:57:38;;;;;;;6.97;3.00;;;28.40;66.90;;;;;;4825283;29;20239;-79
2022/05/12 14:00:29;;;;;;;4.57;2.97;;;28.50;66.80;;;;;;4825738;29;20204;-78
2022/05/12 14:03:15;;;;;;;7.67;3.30;;;28.80;64.30;;;;;;4824992;29;20274;-79
2022/05/12 14:05:45;;;;;;;6.07;3.00;;;28.70;61.50;;;;;;4824117;29;20246;-78
2022/05/12 14:08:16;;;;;;;6.17;2.93;;;28.70;63.50;;;;;;4824085;29;20229;-77
2022/05/12 14:10:47;;;;;;;7.17;3.00;;;28.70;64.70;;;;;;4824296;29;20277;-78
2022/05/12 14:19:15;;;;;;;6.07;3.30;;;28.20;60.70;;;;;;4823969;29;20232;-78
2022/05/12 14:21:48;;;;;;;5.73;2.90;;;28.00;64.50;;;;;;4823971;29;20613;-78
2022/05/12 14:24:17;;;;;;;7.73;2.80;;;27.90;64.30;;;;;;4823186;29;20200;-75
2022/05/12 14:26:46;;;;;;;5.07;3.00;;;27.70;65.90;;;;;;4823373;29;20269;-79
2022/05/12 14:29:15;;;;;;;6.90;3.20;;;27.70;66.70;;;;;;4822757;29;20318;-77
2022/05/12 14:31:45;;;;;;;7.03;3.27;;;27.70;66.30;;;;;;4823998;29;20223;-79
2022/05/12 14:34:16;;;;;;;6.43;3.03;;;27.90;64.00;;;;;;4814396;29;20228;-78
2022/05/12 14:36:45;;;;;;;4.47;3.37;;;28.20;65.90;;;;;;4823339;29;20582;-77
2022/05/12 14:39:15;;;;;;;4.97;3.00;;;28.20;61.90;;;;;;4826385;29;20682;-76
2022/05/12 14:41:44;;;;;;;7.03;3.07;;;28.50;62.30;;;;;;4842394;29;20219;-77
2022/05/12 14:44:13;;;;;;;6.10;3.10;;;28.40;63.70;;;;;;4807711;29;20217;-79
2022/05/12 14:46:44;;;;;;;5.73;3.10;;;28.60;64.10;;;;;;4805231;29;20643;-79
2022/05/12 14:49:16;;;;;;;5.43;3.30;;;28.40;62.60;;;;;;4804653;29;20296;-77
2022/05/12 14:51:49;;;;;;;4.97;3.17;;;28.30;63.80;;;;;;4816985;29;20246;-77
2022/05/12 14:54:17;;;;;;;4.93;3.03;;;28.20;63.00;;;;;;4816079;29;20735;-76
2022/05/12 14:56:45;;;;;;;7.00;3.23;;;28.00;63.00;;;;;;4817489;29;20276;-77
2022/05/12 14:59:14;;;;;;;6.27;3.00;;;28.10;64.60;;;;;;4816992;29;20239;-78
2022/05/12 15:01:43;;;;;;;6.07;3.00;;;28.00;64.20;;;;;;4818375;29;20212;-77
2022/05/12 15:04:11;;;;;;;7.83;3.20;;;28.00;66.70;;;;;;4815823;29;20240;-79
2022/05/12 15:06:40;;;;;;;9.37;2.97;;;27.80;65.70;;;;;;4822353;29;20675;-77
2022/05/12 15:09:12;;;;;;;6.37;3.27;;;27.70;66.40;;;;;;4810640;29;20218;-77
2022/05/12 15:11:40;;;;;;;8.43;3.30;;;27.60;65.30;;;;;;4818656;29;20232;-76
2022/05/12 15:14:08;;;;;;;5.93;3.50;;;27.60;66.60;;;;;;4826930;29;20622;-75
2022/05/12 15:16:40;;;;;;;6.63;3.30;;;27.50;67.20;;;;;;4830055;29;20616;-76
2022/05/12 15:19:08;;;;;;;4.70;3.23;;;27.50;65.70;;;;;;4825871;29;20220;-78
2022/05/12 15:21:36;;;;;;;6.60;3.10;;;27.50;64.70;;;;;;4826520;29;20224;-77
2022/05/12 15:24:05;;;;;;;7.87;3.53;;;27.50;63.90;;;;;;4824270;29;20949;-77
2022/05/12 15:26:38;;;;;;;7.30;3.37;;;27.60;66.80;;;;;;4820368;29;20209;-79
2022/05/12 15:29:08;;;;;;;5.73;3.30;;;27.40;68.40;;;;;;4829621;29;20254;-77
2022/05/12 15:31:36;;;;;;;6.67;3.50;;;27.30;67.30;;;;;;4843756;29;20306;-77
2022/05/12 15:34:04;;;;;;;6.07;3.20;;;27.20;66.60;;;;;;4812785;29;20747;-79
2022/05/12 15:36:36;;;;;;;5.70;3.40;;;27.10;67.90;;;;;;4807980;29;20217;-79
2022/05/12 15:39:06;;;;;;;8.00;3.20;;;27.10;67.70;;;;;;4821983;29;20664;-77
2022/05/12 15:41:40;;;;;;;5.80;3.20;;;26.90;68.00;;;;;;4807965;29;20213;-79
2022/05/12 15:44:11;;;;;;;5.87;3.20;;;26.90;66.00;;;;;;4826326;29;20267;-76
2022/05/12 15:46:44;;;;;;;5.30;3.47;;;26.90;69.20;;;;;;4828516;29;20241;-74
2022/05/12 15:49:17;;;;;;;8.10;3.50;;;26.90;70.80;;;;;;4819009;29;20242;-76
2022/05/12 15:51:46;;;;;;;6.93;3.50;;;27.00;67.50;;;;;;4826054;29;20216;-77
2022/05/12 15:54:14;;;;;;;9.93;3.57;;;26.80;66.70;;;;;;4820725;29;20246;-76
2022/05/12 15:56:44;;;;;;;8.53;3.60;;;26.70;67.10;;;;;;4825350;29;20295;-79
2022/05/12 15:59:12;;;;;;;6.37;3.50;;;26.70;68.00;;;;;;4819502;29;20259;-78
2022/05/12 16:01:40;;;;;;;6.77;3.40;;;26.40;69.50;;;;;;4819160;29;20608;-74
2022/05/12 16:04:12;;;;;;;5.07;3.33;;;26.20;69.30;;;;;;4826928;29;20243;-74
2022/05/12 16:06:42;;;;;;;8.33;3.63;;;26.00;70.90;;;;;;4834049;29;20215;-75
2022/05/12 16:09:12;;;;;;;4.73;3.37;;;25.60;73.60;;;;;;4844799;29;20276;-73
2022/05/12 16:14:41;;;;;;;6.07;3.50;;;25.20;72.90;;;;;;4805787;29;20680;-74
2022/05/12 16:17:10;;;;;;;4.93;3.43;;;25.20;72.20;;;;;;4808073;29;20629;-76
2022/05/12 16:19:39;;;;;;;5.80;4.00;;;25.20;72.90;;;;;;4805969;29;20240;-77
2022/05/12 16:22:07;;;;;;;4.70;3.30;;;25.30;74.10;;;;;;4806371;29;20320;-77
2022/05/12 16:24:35;;;;;;;7.87;3.30;;;25.20;75.90;;;;;;4807202;29;20332;-76
2022/05/12 16:27:06;;;;;;;6.20;3.77;;;25.10;74.20;;;;;;4807055;29;20225;-78
2022/05/12 16:29:39;;;;;;;5.83;3.47;;;25.00;74.20;;;;;;4806874;29;20252;-77
2022/05/12 16:32:09;;;;;;;7.07;3.90;;;25.20;75.60;;;;;;4807860;29;20256;-76
2022/05/12 16:34:39;;;;;;;5.33;3.47;;;25.20;73.80;;;;;;4808421;29;20233;-78
2022/05/12 16:37:07;;;;;;;5.87;3.80;;;25.30;75.00;;;;;;4843180;29;20284;-76
2022/05/12 16:39:35;;;;;;;7.00;3.43;;;25.30;75.50;;;;;;4845093;29;20294;-76
2022/05/12 16:42:05;;;;;;;7.27;3.60;;;25.30;74.00;;;;;;4837298;29;20216;-77
2022/05/12 16:44:33;;;;;;;5.37;3.63;;;25.30;74.40;;;;;;4823726;29;20244;-76
2022/05/12 16:47:04;;;;;;;9.70;3.50;;;25.20;74.80;;;;;;4824811;29;20239;-77
2022/05/12 16:49:35;;;;;;;6.40;3.47;;;25.10;74.30;;;;;;4825476;29;20240;-75
2022/05/12 16:52:05;;;;;;;6.03;3.37;;;24.90;75.50;;;;;;4824582;29;20336;-77
2022/05/12 16:54:34;;;;;;;5.80;3.40;;;24.80;76.50;;;;;;4824559;29;20640;-76
2022/05/12 16:57:06;;;;;;;10.83;3.87;;;24.70;77.00;;;;;;4826459;29;20298;-77
2022/05/12 16:59:35;;;;;;;6.30;3.63;;;24.60;77.90;;;;;;4826090;29;20239;-74
2022/05/12 17:02:03;;;;;;;7.17;3.50;;;24.50;78.90;;;;;;4823577;29;20225;-77
2022/05/12 17:04:31;;;;;;;7.00;3.53;;;24.50;79.00;;;;;;4824137;29;20665;-76
2022/05/12 17:07:00;;;;;;;7.87;3.93;;;24.40;80.00;;;;;;4823833;29;20755;-77
2022/05/12 17:09:30;;;;;;;7.77;3.80;;;24.20;79.50;;;;;;4823559;29;20223;-75
2022/05/12 17:12:00;;;;;;;8.67;4.00;;;24.10;80.10;;;;;;4823858;29;20582;-76
2022/05/12 17:14:30;;;;;;;6.80;3.47;;;23.90;81.20;;;;;;4824020;29;20220;-78
2022/05/12 17:17:00;;;;;;;6.97;3.53;;;23.80;82.00;;;;;;4823756;29;20656;-76
2022/05/12 17:19:29;;;;;;;9.80;4.10;;;23.60;83.50;;;;;;4823111;29;20227;-78